Time;durP1;ratioP1;P1;durP2;ratioP2;P2;SDS_P1;SDS_P2;PMS_P1;PMS_P2;Temp;Humidity;BMP_temperature;BMP_pressure;BME280_temperature;BME280_humidity;BME280_pressure;Samples;Min_cycle;Max_cycle;Signal;HPM_P1;HPM_P2
2022/06/12 00:00:30;;;;;;;;;;;;;;;-146.27;100.00;64033.13;5093935;28;19928;-47
2022/06/12 00:02:56;;;;;;;;;;;;;;;-146.27;100.00;64033.13;5093565;28;19918;-48
2022/06/12 00:05:22;;;;;;;;;;;;;;;-146.27;100.00;64033.13;5093689;28;20352;-49
2022/06/12 00:07:48;;;;;;;;;;;;;;;-146.27;100.00;64033.13;5093721;28;19935;-48
2022/06/12 00:10:13;;;;;;;;;;;;;;;-146.27;100.00;64033.13;5093631;28;20371;-47
2022/06/12 00:12:40;;;;;;;;;;;;;;;-146.27;100.00;64033.13;5093681;28;19919;-46
2022/06/12 00:15:05;;;;;;;;;;;;;;;-146.27;100.00;64033.13;5092984;28;19916;-46
2022/06/12 00:17:31;;;;;;;;;;;;;;;-146.27;100.00;64033.13;5093438;28;20611;-47
2022/06/12 00:19:56;;;;;;;;;;;;;;;-146.27;100.00;64033.13;5093429;28;19919;-47
2022/06/12 00:22:22;;;;;;;;;;;;;;;-146.27;100.00;64033.13;5111236;28;20030;-47
2022/06/12 00:24:47;;;;;;;;;;;;;;;-146.27;100.00;64033.13;5113435;28;19919;-47
2022/06/12 00:27:12;;;;;;;;;;;;;;;-146.27;100.00;64033.13;5113683;28;19911;-48
2022/06/12 00:29:38;;;;;;;;;;;;;;;-146.27;100.00;64033.13;5113290;28;20010;-47
2022/06/12 00:32:04;;;;;;;;;;;;;;;-146.27;100.00;64033.13;5102166;28;19962;-47
2022/06/12 00:34:34;;;;;;;;;;;;;;;-146.27;100.00;64033.13;5092739;28;19971;-46
2022/06/12 00:37:00;;;;;;;;;;;;;;;-146.27;100.00;64033.13;5092809;28;19916;-49
2022/06/12 00:39:25;;;;;;;;;;;;;;;-146.27;100.00;64033.13;5092894;28;19913;-47
2022/06/12 00:41:53;;;;;;;;;;;;;;;-146.27;100.00;64033.13;5092292;28;19912;-50
2022/06/12 00:44:20;;;;;;;;;;;;;;;-146.27;100.00;64033.13;5092514;28;19913;-47
2022/06/12 00:46:51;;;;;;;;;;;;;;;-146.27;100.00;64033.13;5091945;28;19912;-49
2022/06/12 00:49:16;;;;;;;;;;;;;;;-146.27;100.00;64033.13;5092548;28;19912;-47
2022/06/12 00:51:42;;;;;;;;;;;;;;;-146.27;100.00;64033.13;5091562;28;19922;-49
2022/06/12 00:54:08;;;;;;;;;;;;;;;-146.27;100.00;64033.13;5092932;28;19912;-45
2022/06/12 00:56:36;;;;;;;;;;;;;;;-146.27;100.00;64033.13;5092718;28;19972;-45
2022/06/12 00:59:08;;;;;;;;;;;;;;;-146.27;100.00;64033.13;5092699;28;19923;-46
2022/06/12 01:01:35;;;;;;;;;;;;;;;-146.27;100.00;64033.13;5092755;28;20066;-46
2022/06/12 01:06:47;;;;;;;;;;;;;;;-146.27;100.00;64033.13;5092781;28;19919;-46
2022/06/12 01:09:15;;;;;;;;;;;;;;;-146.27;100.00;64033.13;5092562;28;19923;-46
2022/06/12 01:11:42;;;;;;;;;;;;;;;-146.27;100.00;64033.13;5092440;28;19924;-46
2022/06/12 01:14:09;;;;;;;;;;;;;;;-146.27;100.00;64033.13;5092750;28;19913;-46
2022/06/12 01:16:36;;;;;;;;;;;;;;;-146.27;100.00;64033.13;5092542;28;19965;-46
2022/06/12 01:19:01;;;;;;;;;;;;;;;-146.27;100.00;64033.13;5092294;28;19912;-47
2022/06/12 01:21:30;;;;;;;;;;;;;;;-146.27;100.00;64033.13;5102724;28;19911;-47
2022/06/12 01:24:04;;;;;;;;;;;;;;;-146.27;100.00;64033.13;5112626;28;19912;-46
2022/06/12 01:26:43;;;;;;;;;;;;;;;-146.27;100.00;64033.13;5112576;28;19918;-47
2022/06/12 01:29:11;;;;;;;;;;;;;;;-146.27;100.00;64033.13;5112434;28;19915;-47
2022/06/12 01:31:37;;;;;;;;;;;;;;;-146.27;100.00;64033.13;5105441;28;19967;-48
2022/06/12 01:34:08;;;;;;;;;;;;;;;-146.27;100.00;64033.13;5091871;28;19924;-47
2022/06/12 01:36:33;;;;;;;;;;;;;;;-146.27;100.00;64033.13;5091888;28;19956;-47
2022/06/12 01:39:01;;;;;;;;;;;;;;;-146.27;100.00;64033.13;5091266;28;20004;-48
2022/06/12 01:41:45;;;;;;;;;;;;;;;-146.27;100.00;64033.13;5091579;28;19912;-48
2022/06/12 01:44:16;;;;;;;;;;;;;;;-146.27;100.00;64033.13;5091514;28;20367;-48
2022/06/12 01:47:10;;;;;;;;;;;;;;;-146.27;100.00;64033.13;5091433;28;19912;-48
2022/06/12 01:49:45;;;;;;;;;;;;;;;-146.27;100.00;64033.13;5071226;28;20364;-48
2022/06/12 01:52:21;;;;;;;;;;;;;;;-146.27;100.00;64033.13;5092016;28;20011;-48
2022/06/12 01:54:56;;;;;;;;;;;;;;;-146.27;100.00;64033.13;5091989;28;19912;-48
2022/06/12 01:57:32;;;;;;;;;;;;;;;-146.27;100.00;64033.13;5092009;28;20419;-48
2022/06/12 01:59:57;;;;;;;;;;;;;;;-146.27;100.00;64033.13;5091378;28;19912;-48
2022/06/12 02:02:32;;;;;;;;;;;;;;;-146.27;100.00;64033.13;5091614;28;19968;-47
2022/06/12 02:05:10;;;;;;;;;;;;;;;-146.27;100.00;64033.13;5091797;28;20049;-48
2022/06/12 02:07:36;;;;;;;;;;;;;;;-146.27;100.00;64033.13;5091636;28;20356;-48
2022/06/12 02:10:23;;;;;;;;;;;;;;;-146.27;100.00;64033.13;5091523;28;19944;-48
2022/06/12 02:13:13;;;;;;;;;;;;;;;-146.27;100.00;64033.13;5091245;28;20052;-47
2022/06/12 02:15:57;;;;;;;;;;;;;;;-146.27;100.00;64033.13;5091123;28;19916;-47
2022/06/12 02:18:29;;;;;;;;;;;;;;;-146.27;100.00;64033.13;5091346;28;19959;-48
2022/06/12 02:21:17;;;;;;;;;;;;;;;-146.27;100.00;64033.13;5097001;28;19969;-47
2022/06/12 02:23:46;;;;;;;;;;;;;;;-146.27;100.00;64033.13;5100854;28;20020;-47
2022/06/12 02:26:14;;;;;;;;;;;;;;;-146.27;100.00;64033.13;5111550;28;19915;-47
2022/06/12 02:28:43;;;;;;;;;;;;;;;-146.27;100.00;64033.13;5111446;28;20391;-48
2022/06/12 02:31:12;;;;;;;;;;;;;;;-146.27;100.00;64033.13;5108656;28;19912;-47
2022/06/12 02:33:41;;;;;;;;;;;;;;;-146.27;100.00;64033.13;5090791;28;20003;-46
2022/06/12 02:36:10;;;;;;;;;;;;;;;-146.27;100.00;64033.13;5091447;28;19999;-47
2022/06/12 02:38:40;;;;;;;;;;;;;;;-146.27;100.00;64033.13;5091105;28;19912;-45
2022/06/12 02:41:12;;;;;;;;;;;;;;;-146.27;100.00;64033.13;5091421;28;19916;-46
2022/06/12 02:43:40;;;;;;;;;;;;;;;-146.27;100.00;64033.13;5091127;28;19919;-46
2022/06/12 02:46:08;;;;;;;;;;;;;;;-146.27;100.00;64033.13;5091293;28;20260;-46
2022/06/12 02:48:34;;;;;;;;;;;;;;;-146.27;100.00;64033.13;5091298;28;19919;-47
2022/06/12 02:50:59;;;;;;;;;;;;;;;-146.27;100.00;64033.13;5091399;28;19913;-46
2022/06/12 02:53:33;;;;;;;;;;;;;;;-146.27;100.00;64033.13;5090975;28;19912;-46
2022/06/12 02:56:34;;;;;;;;;;;;;;;-146.27;100.00;64033.13;5091518;28;19920;-47
2022/06/12 02:59:23;;;;;;;;;;;;;;;-146.27;100.00;64033.13;5068735;28;19913;-47
2022/06/12 03:02:18;;;;;;;;;;;;;;;-146.27;100.00;64033.13;5086361;28;19912;-47
2022/06/12 03:05:02;;;;;;;;;;;;;;;-146.27;100.00;64033.13;5086267;28;19912;-47
2022/06/12 03:07:29;;;;;;;;;;;;;;;-146.27;100.00;64033.13;5089985;28;19943;-47
2022/06/12 03:09:54;;;;;;;;;;;;;;;-146.27;100.00;64033.13;5091228;28;19920;-47
2022/06/12 03:12:19;;;;;;;;;;;;;;;-146.27;100.00;64033.13;5091332;28;20295;-46
2022/06/12 03:14:44;;;;;;;;;;;;;;;-146.27;100.00;64033.13;5091557;28;19912;-47
2022/06/12 03:17:10;;;;;;;;;;;;;;;-146.27;100.00;64033.13;5095602;28;20322;-46
2022/06/12 03:19:42;;;;;;;;;;;;;;;-146.27;100.00;64033.13;5095462;28;19912;-47
2022/06/12 03:22:10;;;;;;;;;;;;;;;-146.27;100.00;64033.13;5111579;28;20248;-46
2022/06/12 03:24:48;;;;;;;;;;;;;;;-146.27;100.00;64033.13;5115735;28;19912;-47
2022/06/12 03:27:18;;;;;;;;;;;;;;;-146.27;100.00;64033.13;5115398;28;20338;-47
2022/06/12 03:29:56;;;;;;;;;;;;;;;-146.27;100.00;64033.13;5115799;28;19912;-38
2022/06/12 03:32:27;;;;;;;;;;;;;;;-146.27;100.00;64033.13;5101977;28;19920;-38
2022/06/12 03:34:58;;;;;;;;;;;;;;;-146.27;100.00;64033.13;5095389;28;20002;-38
2022/06/12 03:37:31;;;;;;;;;;;;;;;-146.27;100.00;64033.13;5094768;28;19916;-38
2022/06/12 03:39:56;;;;;;;;;;;;;;;-146.27;100.00;64033.13;5095022;28;20343;-38
2022/06/12 03:42:30;;;;;;;;;;;;;;;-146.27;100.00;64033.13;5094785;28;19923;-38
2022/06/12 03:45:07;;;;;;;;;;;;;;;-146.27;100.00;64033.13;5094978;28;19931;-38
2022/06/12 03:47:43;;;;;;;;;;;;;;;-146.27;100.00;64033.13;5094646;28;20002;-38
2022/06/12 03:50:09;;;;;;;;;;;;;;;-146.27;100.00;64033.13;5093981;28;19916;-38
2022/06/12 03:53:00;;;;;;;;;;;;;;;-146.27;100.00;64033.13;5094628;28;19999;-38
2022/06/12 03:58:23;;;;;;;;;;;;;;;-146.27;100.00;64033.13;5094416;28;19922;-38
2022/06/12 04:00:49;;;;;;;;;;;;;;;-146.27;100.00;64033.13;5094611;28;20307;-37
2022/06/12 04:03:18;;;;;;;;;;;;;;;-146.27;100.00;64033.13;5094414;28;20018;-37
2022/06/12 04:05:45;;;;;;;;;;;;;;;-146.27;100.00;64033.13;5094557;28;20439;-38
2022/06/12 04:08:15;;;;;;;;;;;;;;;-146.27;100.00;64033.13;5094163;28;19912;-37
2022/06/12 04:10:40;;;;;;;;;;;;;;;-146.27;100.00;64033.13;5094532;28;20004;-37
2022/06/12 04:13:08;;;;;;;;;;;;;;;-146.27;100.00;64033.13;5094130;28;20003;-37
2022/06/12 04:15:39;;;;;;;;;;;;;;;-146.27;100.00;64033.13;5094325;28;19966;-37
2022/06/12 04:18:04;;;;;;;;;;;;;;;-146.27;100.00;64033.13;5094363;28;20003;-38
2022/06/12 04:20:51;;;;;;;;;;;;;;;-146.27;100.00;64033.13;5096498;28;20363;-38
2022/06/12 04:23:21;;;;;;;;;;;;;;;-146.27;100.00;64033.13;5114227;28;19912;-38
2022/06/12 04:25:52;;;;;;;;;;;;;;;-146.27;100.00;64033.13;5114401;28;20256;-38
2022/06/12 04:28:27;;;;;;;;;;;;;;;-146.27;100.00;64033.13;5114710;28;19918;-38
2022/06/12 04:30:53;;;;;;;;;;;;;;;-146.27;100.00;64033.13;5113249;28;19923;-38
2022/06/12 04:33:37;;;;;;;;;;;;;;;-146.27;100.00;64033.13;5093838;28;19920;-38
2022/06/12 04:36:03;;;;;;;;;;;;;;;-146.27;100.00;64033.13;5093920;28;20404;-38
2022/06/12 04:38:30;;;;;;;;;;;;;;;-146.27;100.00;64033.13;5091296;28;19920;-38
2022/06/12 04:40:56;;;;;;;;;;;;;;;-146.27;100.00;64033.13;5087397;28;20383;-38
2022/06/12 04:43:21;;;;;;;;;;;;;;;-146.27;100.00;64033.13;5093411;28;20014;-38
2022/06/12 04:45:47;;;;;;;;;;;;;;;-146.27;100.00;64033.13;5088947;28;19958;-38
2022/06/12 04:48:15;;;;;;;;;;;;;;;-146.27;100.00;64033.13;5076402;28;19961;-38
2022/06/12 04:50:40;;;;;;;;;;;;;;;-146.27;100.00;64033.13;5084059;28;19916;-38
2022/06/12 04:53:05;;;;;;;;;;;;;;;-146.27;100.00;64033.13;5093389;28;19954;-38
2022/06/12 04:55:33;;;;;;;;;;;;;;;-146.27;100.00;64033.13;5093497;28;20007;-38
2022/06/12 04:57:58;;;;;;;;;;;;;;;-146.27;100.00;64033.13;5090988;28;19947;-38
2022/06/12 05:00:24;;;;;;;;;;;;;;;-146.27;100.00;64033.13;5095794;28;19970;-38
2022/06/12 05:02:49;;;;;;;;;;;;;;;-146.27;100.00;64033.13;5092587;28;19977;-39
2022/06/12 05:05:15;;;;;;;;;;;;;;;-146.27;100.00;64033.13;5093170;28;19922;-38
2022/06/12 05:07:40;;;;;;;;;;;;;;;-146.27;100.00;64033.13;5091701;28;19916;-38
2022/06/12 05:10:05;;;;;;;;;;;;;;;-146.27;100.00;64033.13;5100724;28;19916;-47
2022/06/12 05:12:31;;;;;;;;;;;;;;;-146.27;100.00;64033.13;5097422;28;19916;-49
2022/06/12 05:14:56;;;;;;;;;;;;;;;-146.27;100.00;64033.13;5091793;28;19959;-49
2022/06/12 05:17:22;;;;;;;;;;;;;;;-146.27;100.00;64033.13;5091788;28;19958;-48
2022/06/12 05:19:49;;;;;;;;;;;;;;;-146.27;100.00;64033.13;5092287;28;19916;-37
2022/06/12 05:22:15;;;;;;;;;;;;;;;-146.27;100.00;64033.13;5089113;28;19916;-38
2022/06/12 05:24:41;;;;;;;;;;;;;;;-146.27;100.00;64033.13;5080364;28;20007;-38
2022/06/12 05:27:08;;;;;;;;;;;;;;;-146.27;100.00;64033.13;5082346;28;19922;-38
2022/06/12 05:29:35;;;;;;;;;;;;;;;-146.27;100.00;64033.13;5085587;28;19953;-37
2022/06/12 05:32:01;;;;;;;;;;;;;;;-146.27;100.00;64033.13;5084033;28;19973;-38
2022/06/12 05:34:26;;;;;;;;;;;;;;;-146.27;100.00;64033.13;5089080;28;19920;-37
2022/06/12 05:36:52;;;;;;;;;;;;;;;-146.27;100.00;64033.13;5072599;28;19920;-37
2022/06/12 05:39:18;;;;;;;;;;;;;;;-146.27;100.00;64033.13;5072675;28;19912;-37
2022/06/12 05:41:44;;;;;;;;;;;;;;;-146.27;100.00;64033.13;5092432;28;20311;-37
2022/06/12 05:44:10;;;;;;;;;;;;;;;-146.27;100.00;64033.13;5082754;28;19947;-38
2022/06/12 05:46:35;;;;;;;;;;;;;;;-146.27;100.00;64033.13;5076041;28;19966;-37
2022/06/12 05:49:01;;;;;;;;;;;;;;;-146.27;100.00;64033.13;5089274;28;20352;-38
2022/06/12 05:51:26;;;;;;;;;;;;;;;-146.27;100.00;64033.13;5074306;28;19920;-48
2022/06/12 05:53:51;;;;;;;;;;;;;;;-146.27;100.00;64033.13;5118175;27;19934;-47
2022/06/12 05:56:18;;;;;;;;;;;;;;;-146.27;100.00;64033.13;5071812;28;19986;-48
2022/06/12 05:58:44;;;;;;;;;;;;;;;-146.27;100.00;64033.13;5072149;28;19997;-47
2022/06/12 06:01:10;;;;;;;;;;;;;;;-146.27;100.00;64033.13;5072004;28;20249;-48
2022/06/12 06:03:36;;;;;;;;;;;;;;;-146.27;100.00;64033.13;5071572;28;19924;-38
2022/06/12 06:06:02;;;;;;;;;;;;;;;-146.27;100.00;64033.13;5071960;28;19913;-38
2022/06/12 06:08:27;;;;;;;;;;;;;;;-146.27;100.00;64033.13;5081405;28;19916;-37
2022/06/12 06:10:52;;;;;;;;;;;;;;;-146.27;100.00;64033.13;5084683;28;20375;-52
2022/06/12 06:13:18;;;;;;;;;;;;;;;-146.27;100.00;64033.13;5073765;28;20014;-38
2022/06/12 06:15:45;;;;;;;;;;;;;;;-146.27;100.00;64033.13;5071254;28;20342;-38
2022/06/12 06:18:11;;;;;;;;;;;;;;;-146.27;100.00;64033.13;5076902;28;19912;-38
2022/06/12 06:20:38;;;;;;;;;;;;;;;-146.27;100.00;64033.13;5078584;28;19911;-48
2022/06/12 06:23:04;;;;;;;;;;;;;;;-146.27;100.00;64033.13;5111216;28;19934;-49
2022/06/12 06:25:29;;;;;;;;;;;;;;;-146.27;100.00;64033.13;5101162;28;20010;-47
2022/06/12 06:27:55;;;;;;;;;;;;;;;-146.27;100.00;64033.13;5089605;28;19916;-47
2022/06/12 06:30:21;;;;;;;;;;;;;;;-146.27;100.00;64033.13;5089257;28;20414;-47
2022/06/12 06:32:46;;;;;;;;;;;;;;;-146.27;100.00;64033.13;5089992;28;20026;-47
2022/06/12 06:35:12;;;;;;;;;;;;;;;-146.27;100.00;64033.13;5089534;28;20073;-50
2022/06/12 06:37:38;;;;;;;;;;;;;;;-146.27;100.00;64033.13;5090044;28;19919;-47
2022/06/12 06:40:05;;;;;;;;;;;;;;;-146.27;100.00;64033.13;5090329;28;19912;-51
2022/06/12 06:42:30;;;;;;;;;;;;;;;-146.27;100.00;64033.13;5088942;28;19912;-48
2022/06/12 06:47:40;;;;;;;;;;;;;;;-146.27;100.00;64033.13;5090086;28;19991;-37
2022/06/12 06:50:06;;;;;;;;;;;;;;;-146.27;100.00;64033.13;5089583;28;19959;-38
2022/06/12 06:52:31;;;;;;;;;;;;;;;-146.27;100.00;64033.13;5090611;28;19928;-38
2022/06/12 06:54:57;;;;;;;;;;;;;;;-146.27;100.00;64033.13;5090557;28;19912;-38
2022/06/12 06:57:23;;;;;;;;;;;;;;;-146.27;100.00;64033.13;5090989;28;19958;-37
2022/06/12 06:59:48;;;;;;;;;;;;;;;-146.27;100.00;64033.13;5090526;28;19919;-38
2022/06/12 07:02:13;;;;;;;;;;;;;;;-146.27;100.00;64033.13;5090919;28;19912;-37
2022/06/12 07:04:39;;;;;;;;;;;;;;;-146.27;100.00;64033.13;5081008;28;19913;-38
2022/06/12 07:07:05;;;;;;;;;;;;;;;-146.27;100.00;64033.13;5082210;28;19919;-46
2022/06/12 07:09:30;;;;;;;;;;;;;;;-146.27;100.00;64033.13;5090386;28;19991;-45
2022/06/12 07:11:56;;;;;;;;;;;;;;;-146.27;100.00;64033.13;5090551;28;20419;-49
2022/06/12 07:14:21;;;;;;;;;;;;;;;-146.27;100.00;64033.13;5090367;28;19926;-48
2022/06/12 07:16:47;;;;;;;;;;;;;;;-146.27;100.00;64033.13;5090199;28;20299;-48
2022/06/12 07:19:12;;;;;;;;;;;;;;;-146.27;100.00;64033.13;5090431;28;19995;-49
2022/06/12 07:21:37;;;;;;;;;;;;;;;-146.27;100.00;64033.13;5101898;28;19918;-50
2022/06/12 07:24:03;;;;;;;;;;;;;;;-146.27;100.00;64033.13;5110837;28;19999;-49
2022/06/12 07:26:30;;;;;;;;;;;;;;;-146.27;100.00;64033.13;5110898;28;19949;-50
2022/06/12 07:28:56;;;;;;;;;;;;;;;-146.27;100.00;64033.13;5110913;28;19919;-37
2022/06/12 07:31:22;;;;;;;;;;;;;;;-146.27;100.00;64033.13;5105209;28;20295;-48
2022/06/12 07:33:47;;;;;;;;;;;;;;;-146.27;100.00;64033.13;5089993;28;19981;-47
2022/06/12 07:36:14;;;;;;;;;;;;;;;-146.27;100.00;64033.13;5090430;28;20011;-49
2022/06/12 07:38:40;;;;;;;;;;;;;;;-146.27;100.00;64033.13;5090166;28;19919;-50
2022/06/12 07:41:08;;;;;;;;;;;;;;;-146.27;100.00;64033.13;5089670;28;19968;-49
2022/06/12 07:43:34;;;;;;;;;;;;;;;-146.27;100.00;64033.13;5089957;28;19916;-48
2022/06/12 07:46:00;;;;;;;;;;;;;;;-146.27;100.00;64033.13;5090185;28;19912;-49
2022/06/12 07:48:25;;;;;;;;;;;;;;;-146.27;100.00;64033.13;5090055;28;19912;-51
2022/06/12 07:50:51;;;;;;;;;;;;;;;-146.27;100.00;64033.13;5089958;28;19919;-49
2022/06/12 07:53:17;;;;;;;;;;;;;;;-146.27;100.00;64033.13;5089236;28;20071;-48
2022/06/12 07:55:43;;;;;;;;;;;;;;;-146.27;100.00;64033.13;5089843;28;19920;-48
2022/06/12 07:58:09;;;;;;;;;;;;;;;-146.27;100.00;64033.13;5090110;28;19912;-38
2022/06/12 08:00:35;;;;;;;;;;;;;;;-146.27;100.00;64033.13;5090700;28;20353;-38
2022/06/12 08:03:00;;;;;;;;;;;;;;;-146.27;100.00;64033.13;5093841;28;20292;-38
2022/06/12 08:05:26;;;;;;;;;;;;;;;-146.27;100.00;64033.13;5094088;28;19912;-36
2022/06/12 08:07:51;;;;;;;;;;;;;;;-146.27;100.00;64033.13;5093804;28;19912;-37
2022/06/12 08:10:17;;;;;;;;;;;;;;;-146.27;100.00;64033.13;5093752;28;20439;-37
2022/06/12 08:12:44;;;;;;;;;;;;;;;-146.27;100.00;64033.13;5093552;28;19965;-37
2022/06/12 08:15:11;;;;;;;;;;;;;;;-146.27;100.00;64033.13;5093153;28;20375;-37
2022/06/12 08:17:37;;;;;;;;;;;;;;;-146.27;100.00;64033.13;5093340;28;19922;-37
2022/06/12 08:22:46;;;;;;;;;;;;;;;-146.27;100.00;64033.13;5113931;28;19958;-37
2022/06/12 08:25:12;;;;;;;;;;;;;;;-146.27;100.00;64033.13;5094412;28;19947;-38
2022/06/12 08:27:37;;;;;;;;;;;;;;;-146.27;100.00;64033.13;5093724;28;20394;-37
2022/06/12 08:30:07;;;;;;;;;;;;;;;-146.27;100.00;64033.13;5093343;28;20395;-37
2022/06/12 08:32:32;;;;;;;;;;;;;;;-146.27;100.00;64033.13;5093132;28;20074;-37
2022/06/12 08:35:00;;;;;;;;;;;;;;;-146.27;100.00;64033.13;5093254;28;19935;-37
2022/06/12 08:37:30;;;;;;;;;;;;;;;-146.27;100.00;64033.13;5093356;28;20038;-37
2022/06/12 08:39:56;;;;;;;;;;;;;;;-146.27;100.00;64033.13;5092910;28;19919;-38
2022/06/12 08:42:29;;;;;;;;;;;;;;;-146.27;100.00;64033.13;5093169;28;19913;-38
2022/06/12 08:45:00;;;;;;;;;;;;;;;-146.27;100.00;64033.13;5092551;28;19912;-37
2022/06/12 08:47:25;;;;;;;;;;;;;;;-146.27;100.00;64033.13;5092035;28;20006;-37
2022/06/12 08:50:06;;;;;;;;;;;;;;;-146.27;100.00;64033.13;5092849;28;19935;-37
2022/06/12 08:52:36;;;;;;;;;;;;;;;-146.27;100.00;64033.13;5091322;28;19981;-37
2022/06/12 08:55:12;;;;;;;;;;;;;;;-146.27;100.00;64033.13;5093179;28;19915;-37
2022/06/12 08:57:44;;;;;;;;;;;;;;;-146.27;100.00;64033.13;5092757;28;20304;-38
2022/06/12 09:00:12;;;;;;;;;;;;;;;-146.27;100.00;64033.13;5092850;28;19927;-38
2022/06/12 09:02:39;;;;;;;;;;;;;;;-146.27;100.00;64033.13;5092888;28;19919;-39
2022/06/12 09:05:06;;;;;;;;;;;;;;;-146.27;100.00;64033.13;5092827;28;20277;-38
2022/06/12 09:07:51;;;;;;;;;;;;;;;-146.27;100.00;64033.13;5092670;28;19912;-38
2022/06/12 09:10:23;;;;;;;;;;;;;;;-146.27;100.00;64033.13;5080473;28;20399;-38
2022/06/12 09:12:51;;;;;;;;;;;;;;;-146.27;100.00;64033.13;5091775;28;19955;-38
2022/06/12 09:15:22;;;;;;;;;;;;;;;-146.27;100.00;64033.13;5092586;28;19912;-39
2022/06/12 09:18:03;;;;;;;;;;;;;;;-146.27;100.00;64033.13;5092253;28;19912;-38
2022/06/12 09:20:55;;;;;;;;;;;;;;;-146.27;100.00;64033.13;5092670;28;20299;-37
2022/06/12 09:23:23;;;;;;;;;;;;;;;-146.27;100.00;64033.13;5087728;28;19912;-48
2022/06/12 09:25:57;;;;;;;;;;;;;;;-146.27;100.00;64033.13;5092246;28;19912;-48
2022/06/12 09:28:27;;;;;;;;;;;;;;;-146.27;100.00;64033.13;5091933;28;19965;-48
2022/06/12 09:30:59;;;;;;;;;;;;;;;-146.27;100.00;64033.13;5091892;28;19961;-49
2022/06/12 09:33:25;;;;;;;;;;;;;;;-146.27;100.00;64033.13;5091506;28;19920;-48
2022/06/12 09:36:09;;;;;;;;;;;;;;;-146.27;100.00;64033.13;5091735;28;20007;-46
2022/06/12 09:38:47;;;;;;;;;;;;;;;-146.27;100.00;64033.13;5091578;28;19912;-49
2022/06/12 09:41:18;;;;;;;;;;;;;;;-146.27;100.00;64033.13;5091778;28;19912;-52
2022/06/12 09:44:05;;;;;;;;;;;;;;;-146.27;100.00;64033.13;5091897;28;19912;-51
2022/06/12 09:46:35;;;;;;;;;;;;;;;-146.27;100.00;64033.13;5091756;28;20036;-51
2022/06/12 09:49:06;;;;;;;;;;;;;;;-146.27;100.00;64033.13;5090131;28;19999;-52
2022/06/12 09:51:32;;;;;;;;;;;;;;;-146.27;100.00;64033.13;5091442;28;19916;-50
2022/06/12 09:54:05;;;;;;;;;;;;;;;-146.27;100.00;64033.13;5091515;28;19919;-51
2022/06/12 09:56:36;;;;;;;;;;;;;;;-146.27;100.00;64033.13;5091645;28;19923;-51
2022/06/12 09:59:01;;;;;;;;;;;;;;;-146.27;100.00;64033.13;5091764;28;20344;-53
2022/06/12 10:01:29;;;;;;;;;;;;;;;-146.27;100.00;64033.13;5090875;28;19969;-52
2022/06/12 10:03:54;;;;;;;;;;;;;;;-146.27;100.00;64033.13;5091648;28;19916;-50
2022/06/12 10:06:24;;;;;;;;;;;;;;;-146.27;100.00;64033.13;5091263;28;19919;-53
2022/06/12 10:08:53;;;;;;;;;;;;;;;-146.27;100.00;64033.13;5090881;28;19919;-53
2022/06/12 10:11:37;;;;;;;;;;;;;;;-146.27;100.00;64033.13;5090658;28;19973;-52
2022/06/12 10:14:15;;;;;;;;;;;;;;;-146.27;100.00;64033.13;5091035;28;19912;-53
2022/06/12 10:16:55;;;;;;;;;;;;;;;-146.27;100.00;64033.13;5091152;28;19916;-51
2022/06/12 10:19:24;;;;;;;;;;;;;;;-146.27;100.00;64033.13;5093378;28;19934;-53
2022/06/12 10:21:52;;;;;;;;;;;;;;;-146.27;100.00;64033.13;5095430;28;19938;-50
2022/06/12 10:24:17;;;;;;;;;;;;;;;-146.27;100.00;64033.13;5090567;28;19916;-52
2022/06/12 10:26:53;;;;;;;;;;;;;;;-146.27;100.00;64033.13;5102727;28;19927;-52
2022/06/12 10:29:20;;;;;;;;;;;;;;;-146.27;100.00;64033.13;5099759;28;19999;-37
2022/06/12 10:32:06;;;;;;;;;;;;;;;-146.27;100.00;64033.13;5097238;28;19930;-37
2022/06/12 10:34:32;;;;;;;;;;;;;;;-146.27;100.00;64033.13;5100715;28;19924;-37
2022/06/12 10:37:10;;;;;;;;;;;;;;;-146.27;100.00;64033.13;5090434;28;19924;-37
2022/06/12 10:39:36;;;;;;;;;;;;;;;-146.27;100.00;64033.13;5097859;28;19923;-38
2022/06/12 10:42:03;;;;;;;;;;;;;;;-146.27;100.00;64033.13;5107303;28;19911;-38
2022/06/12 10:44:28;;;;;;;;;;;;;;;-146.27;100.00;64033.13;5111090;28;19912;-36
2022/06/12 10:46:54;;;;;;;;;;;;;;;-146.27;100.00;64033.13;5112042;28;19969;-38
2022/06/12 10:49:22;;;;;;;;;;;;;;;-146.27;100.00;64033.13;5112231;28;20294;-38
2022/06/12 10:51:48;;;;;;;;;;;;;;;-146.27;100.00;64033.13;5111886;28;20363;-38
2022/06/12 10:54:20;;;;;;;;;;;;;;;-146.27;100.00;64033.13;5111421;28;19922;-52
2022/06/12 10:57:02;;;;;;;;;;;;;;;-146.27;100.00;64033.13;5112093;28;19920;-38
2022/06/12 10:59:33;;;;;;;;;;;;;;;-146.27;100.00;64033.13;5111603;28;19911;-38
2022/06/12 11:02:17;;;;;;;;;;;;;;;-146.27;100.00;64033.13;5111243;28;20401;-37
2022/06/12 11:04:59;;;;;;;;;;;;;;;-146.27;100.00;64033.13;5111514;28;20565;-37
2022/06/12 11:07:24;;;;;;;;;;;;;;;-146.27;100.00;64033.13;5097255;28;20284;-37
2022/06/12 11:09:53;;;;;;;;;;;;;;;-146.27;100.00;64033.13;5091537;28;19924;-38
2022/06/12 11:12:42;;;;;;;;;;;;;;;-146.27;100.00;64033.13;5090864;28;19920;-38
2022/06/12 11:15:07;;;;;;;;;;;;;;;-146.27;100.00;64033.13;5090731;28;19954;-38
2022/06/12 11:17:45;;;;;;;;;;;;;;;-146.27;100.00;64033.13;5090864;28;19959;-52
2022/06/12 11:20:46;;;;;;;;;;;;;;;-146.27;100.00;64033.13;5090859;28;19916;-53
2022/06/12 11:23:11;;;;;;;;;;;;;;;-146.27;100.00;64033.13;5088240;28;20265;-52
2022/06/12 11:25:55;;;;;;;;;;;;;;;-146.27;100.00;64033.13;5106023;28;20423;-50
2022/06/12 11:28:41;;;;;;;;;;;;;;;-146.27;100.00;64033.13;5103233;28;19912;-38
2022/06/12 11:31:12;;;;;;;;;;;;;;;-146.27;100.00;64033.13;5072978;28;19928;-38
2022/06/12 11:33:53;;;;;;;;;;;;;;;-146.27;100.00;64033.13;5090531;28;19921;-38
2022/06/12 11:36:21;;;;;;;;;;;;;;;-146.27;100.00;64033.13;5091191;28;19920;-38
2022/06/12 11:38:55;;;;;;;;;;;;;;;-146.27;100.00;64033.13;5094350;28;19943;-38
2022/06/12 11:41:29;;;;;;;;;;;;;;;-146.27;100.00;64033.13;5094467;28;19912;-38
2022/06/12 11:44:10;;;;;;;;;;;;;;;-146.27;100.00;64033.13;5094260;28;19958;-38
2022/06/12 11:46:44;;;;;;;;;;;;;;;-146.27;100.00;64033.13;5094051;28;19959;-38
2022/06/12 11:49:23;;;;;;;;;;;;;;;-146.27;100.00;64033.13;5093919;28;20265;-38
2022/06/12 11:52:07;;;;;;;;;;;;;;;-146.27;100.00;64033.13;5093751;28;20380;-38
2022/06/12 11:54:47;;;;;;;;;;;;;;;-146.27;100.00;64033.13;5094000;28;19912;-38
2022/06/12 11:57:22;;;;;;;;;;;;;;;-146.27;100.00;64033.13;5094104;28;19916;-38
2022/06/12 11:59:50;;;;;;;;;;;;;;;-146.27;100.00;64033.13;5093928;28;20010;-38
2022/06/12 12:02:44;;;;;;;;;;;;;;;-146.27;100.00;64033.13;5093696;28;19961;-50
2022/06/12 12:05:18;;;;;;;;;;;;;;;-146.27;100.00;64033.13;5093260;28;20341;-47
2022/06/12 12:08:02;;;;;;;;;;;;;;;-146.27;100.00;64033.13;5093730;28;19923;-48
2022/06/12 12:10:32;;;;;;;;;;;;;;;-146.27;100.00;64033.13;5093723;28;19912;-50
2022/06/12 12:13:01;;;;;;;;;;;;;;;-146.27;100.00;64033.13;5094031;28;19912;-50
2022/06/12 12:15:35;;;;;;;;;;;;;;;-146.27;100.00;64033.13;5094059;28;19916;-50
2022/06/12 12:18:03;;;;;;;;;;;;;;;-146.27;100.00;64033.13;5094171;28;19919;-47
2022/06/12 12:20:41;;;;;;;;;;;;;;;-146.27;100.00;64033.13;5094979;28;19912;-48
2022/06/12 12:23:18;;;;;;;;;;;;;;;-146.27;100.00;64033.13;5104276;28;20436;-37
2022/06/12 12:26:03;;;;;;;;;;;;;;;-146.27;100.00;64033.13;5093665;28;19920;-37
2022/06/12 12:28:34;;;;;;;;;;;;;;;-146.27;100.00;64033.13;5073729;28;19919;-37
2022/06/12 12:31:03;;;;;;;;;;;;;;;-146.27;100.00;64033.13;5075159;28;19999;-37
2022/06/12 12:33:29;;;;;;;;;;;;;;;-146.27;100.00;64033.13;5093578;28;19924;-37
2022/06/12 12:41:42;;;;;;;;;;;;;;;-146.27;100.00;64033.13;5093455;28;19918;-39
2022/06/12 12:44:07;;;;;;;;;;;;;;;-146.27;100.00;64033.13;5092577;28;19912;-38
2022/06/12 12:46:58;;;;;;;;;;;;;;;-146.27;100.00;64033.13;5092024;28;19997;-38
2022/06/12 12:49:29;;;;;;;;;;;;;;;-146.27;100.00;64033.13;5089707;28;20007;-38